Flugplatz Rendsburg-Schachtholm

Für EDXR sind keine METAR/TAF Berichte vorhanden.
Es werden die Flugwettermeldungen vom Flugplatz Hohn Airport in 10 km Entfernung angezeigt.

Bericht für ETNH

vom 25.10. um 15:20 UTC

Wind 6 kt aus 180°

Sichtweite 3000 m

schwacher Sprühregen

schwacher Regen

feuchter Dunst

aufgebrochene Bewölkung in 900 ft

Temperatur 10.0°C

Taupunkt 9.0°C

Luftfeuchtigkeit 93%

Luftdruck 1015 hPa

ETNH 251520Z 18006KT 3000 -DZRA BR BKN009 10/09 Q1015 YLO FCST CNL

Prognose für ETNH

vom 25.10. um 10:00 UTC

Zwischen 11:00 UTC und 23:00 UTC

Wind 5 kt aus 170°

Sichtweite 10 km oder mehr

keine signifikanten Wettererscheinungen

keine Wolken


Zwischen 11:00 und 13:00 UTC übergehend zu

Wind 8 kt aus 190°

Sichtweite 10 km oder mehr

keine signifikanten Wettererscheinungen

aufgelockert bewölkt in 1000 ft

aufgebrochene Bewölkung in 2000 ft


Zwischen 12:00 UTC und 23:00 UTC zeitweise

Wind 8 kt aus 190°

Sichtweite 3000 m

schwacher Regen

schwacher Sprühregen

aufgebrochene Bewölkung in 500 ft

TAF ETNH 251000Z 2511/2523 17005KT 9999 NSW SKC BECMG 2511/2513 19008KT 9999 NSW SCT010 BKN020 TEMPO 2512/2523 19008KT 3000 -RADZ BKN005 BY ETGL
Impressum